createdAt,value
2023-01-03T00:02:11.045Z,97832.59
2023-01-03T00:07:02.835Z,97834.50
2023-01-03T00:12:13.858Z,97827.59
2023-01-03T00:17:07.849Z,97837.84
2023-01-03T00:21:59.673Z,97843.50
2023-01-03T00:26:51.462Z,97845.84
2023-01-03T00:31:43.513Z,97845.25
2023-01-03T00:36:36.419Z,97839.19
2023-01-03T00:41:28.169Z,97829.91
2023-01-03T00:46:21.254Z,97845.69
2023-01-03T00:51:25.401Z,97843.56
2023-01-03T00:56:20.523Z,97848.81
2023-01-03T01:01:21.868Z,97846.28
2023-01-03T01:06:24.731Z,97853.34
2023-01-03T01:11:18.072Z,97843.50
2023-01-03T01:16:14.569Z,97844.28
2023-01-03T01:21:12.833Z,97857.59
2023-01-03T01:26:06.524Z,97848.81
2023-01-03T01:31:03.380Z,97848.97
2023-01-03T01:35:55.339Z,97854.34
2023-01-03T01:40:47.499Z,97860.97
2023-01-03T01:45:39.718Z,97853.69
2023-01-03T01:50:48.155Z,97852.44
2023-01-03T01:56:00.415Z,97856.06
2023-01-03T02:00:52.678Z,97864.50
2023-01-03T02:06:00.701Z,97873.13
2023-01-03T02:11:21.997Z,97858.06
2023-01-03T02:16:55.793Z,97859.59
2023-01-03T02:22:30.795Z,97854.44
2023-01-03T02:28:18.134Z,97857.28
2023-01-03T02:33:19.743Z,97862.81
2023-01-03T02:38:47.549Z,97853.69
2023-01-03T02:43:58.734Z,97855.44
2023-01-03T02:49:08.657Z,97858.25
2023-01-03T02:54:03.341Z,97852.59
2023-01-03T02:59:02.848Z,97847.75
2023-01-03T03:03:56.588Z,97846.13
2023-01-03T03:08:49.222Z,97838.03
2023-01-03T03:13:50.476Z,97850.28
2023-01-03T03:19:01.034Z,97846.25
2023-01-03T03:24:25.914Z,97855.72
2023-01-03T03:29:20.704Z,97854.09
2023-01-03T03:34:25.169Z,97861.06
2023-01-03T03:39:37.101Z,97873.53
2023-01-03T03:45:01.303Z,97867.81
2023-01-03T03:50:01.626Z,97857.81
2023-01-03T03:55:16.842Z,97865.16
2023-01-03T04:00:16.830Z,97863.81
2023-01-03T04:05:11.766Z,97857.06
2023-01-03T04:10:06.366Z,97843.75
2023-01-03T04:14:58.110Z,97845.13
2023-01-03T04:19:49.798Z,97848.09
2023-01-03T04:24:41.526Z,97839.66
2023-01-03T04:29:38.958Z,97831.97
2023-01-03T04:34:31.152Z,97839.41
2023-01-03T04:39:23.029Z,97836.78
2023-01-03T04:44:14.889Z,97848.59
2023-01-03T04:49:09.763Z,97844.53
2023-01-03T04:54:03.198Z,97851.59
2023-01-03T04:58:55.955Z,97842.88
2023-01-03T05:03:49.386Z,97836.19
2023-01-03T05:13:57.191Z,97850.06
2023-01-03T05:18:52.152Z,97848.88
2023-01-03T05:24:02.465Z,97848.44
2023-01-03T05:28:58.807Z,97849.63
2023-01-03T05:33:50.932Z,97857.66
2023-01-03T05:38:47.054Z,97869.31
2023-01-03T05:43:38.986Z,97868.66
2023-01-03T05:48:31.279Z,97859.38
2023-01-03T05:53:23.954Z,97871.66
2023-01-03T05:58:19.397Z,97870.47
2023-01-03T06:03:11.296Z,97886.69
2023-01-03T06:08:05.861Z,97884.16
2023-01-03T06:12:58.135Z,97894.63
2023-01-03T06:23:05.378Z,97902.84
2023-01-03T06:27:57.344Z,97895.63
2023-01-03T06:32:51.190Z,97893.75
2023-01-03T06:48:22.556Z,97919.44
2023-01-03T06:53:26.230Z,97924.69
2023-01-03T06:58:21.950Z,97924.19
2023-01-03T07:03:17.762Z,97933.56
2023-01-03T07:13:37.981Z,97935.94
2023-01-03T07:18:31.583Z,97945.19
2023-01-03T07:33:41.303Z,97948.28
2023-01-03T07:48:58.159Z,97964.88
2023-01-03T08:14:55.017Z,97964.03
2023-01-03T08:19:48.308Z,97961.00
2023-01-03T08:24:43.239Z,97955.56
2023-01-03T08:34:44.420Z,97964.13
2023-01-03T08:39:50.380Z,97969.81
2023-01-03T09:00:12.523Z,97996.38
2023-01-03T09:57:58.960Z,98057.03
2023-01-03T10:09:15.022Z,98048.50
2023-01-03T11:42:36.043Z,98008.72
2023-01-03T12:04:30.434Z,98017.59
2023-01-03T12:15:18.803Z,98015.41
2023-01-03T12:20:28.911Z,98015.41
2023-01-03T12:25:36.565Z,98005.69
2023-01-03T12:41:27.669Z,98013.78
2023-01-03T13:14:05.780Z,97999.69
2023-01-03T13:19:29.471Z,98010.34
2023-01-03T13:45:38.726Z,98013.78
2023-01-03T13:50:40.533Z,98020.03
2023-01-03T14:11:55.412Z,98036.22
2023-01-03T14:16:54.085Z,98026.38
2023-01-03T14:32:49.221Z,98036.59
2023-01-03T14:37:50.736Z,98041.66
2023-01-03T14:53:04.743Z,98032.22
2023-01-03T15:45:28.624Z,98036.88
2023-01-03T15:50:28.459Z,98036.16
2023-01-03T15:55:24.901Z,98043.66
2023-01-03T16:25:58.447Z,98046.03
2023-01-03T16:36:38.141Z,98038.91
2023-01-03T16:57:01.397Z,98029.91
2023-01-03T18:08:57.600Z,98049.91
2023-01-03T18:18:56.630Z,98046.13
2023-01-03T18:24:04.570Z,98057.50
2023-01-03T18:44:43.890Z,98051.97
2023-01-03T18:49:37.240Z,98048.75
2023-01-03T19:04:50.994Z,98046.47
2023-01-03T19:25:08.612Z,98049.16
2023-01-03T19:30:01.857Z,98045.25
2023-01-03T19:34:54.995Z,98052.91
2023-01-03T19:39:56.732Z,98044.09
2023-01-03T19:55:03.456Z,98051.88
2023-01-03T19:59:59.944Z,98060.72
2023-01-03T20:25:28.963Z,98052.28
2023-01-03T20:30:25.894Z,98042.31
2023-01-03T20:40:36.341Z,98061.44
2023-01-03T20:45:30.413Z,98064.69
2023-01-03T20:55:38.428Z,98073.22
2023-01-03T21:05:42.349Z,98079.53
2023-01-03T21:10:42.623Z,98073.81
2023-01-03T21:15:35.921Z,98065.16
2023-01-03T21:20:31.441Z,98060.97
2023-01-03T21:30:41.329Z,98059.06
2023-01-03T21:35:33.187Z,98055.41
2023-01-03T21:40:37.504Z,98062.38
2023-01-03T21:45:48.309Z,98053.09
2023-01-03T21:50:51.052Z,98055.72
2023-01-03T22:00:52.848Z,98055.31
2023-01-03T22:05:46.929Z,98053.22
2023-01-03T22:10:41.172Z,98047.56
2023-01-03T22:15:37.898Z,98055.72
2023-01-03T22:40:55.363Z,98074.94
2023-01-03T22:51:00.857Z,98086.63
2023-01-03T23:01:14.771Z,98081.41
2023-01-03T23:06:11.432Z,98058.94
2023-01-03T23:11:33.859Z,98056.50
2023-01-03T23:16:27.698Z,98048.47
2023-01-03T23:21:27.332Z,98054.97
2023-01-03T23:26:22.753Z,98041.34
2023-01-03T23:31:15.730Z,98040.84
2023-01-03T23:36:11.941Z,98034.47
2023-01-03T23:46:19.661Z,98043.56
2023-01-03T23:51:12.712Z,98034.41
2023-01-03T23:56:07.873Z,98013.91
